Time;durP1;ratioP1;P1;durP2;ratioP2;P2;SDS_P1;SDS_P2;PMS_P1;PMS_P2;Temp;Humidity;BMP_temperature;BMP_pressure;BME280_temperature;BME280_humidity;BME280_pressure;Samples;Min_cycle;Max_cycle;Signal;HPM_P1;HPM_P2
2022/03/15 00:00:06;;;;;;;24.57;14.03;;;9.50;99.90;;;;;;4978689;28;20206;-55
2022/03/15 00:02:32;;;;;;;22.80;14.87;;;9.50;99.90;;;;;;4977842;28;20299;-55
2022/03/15 00:04:59;;;;;;;25.10;14.47;;;9.50;99.90;;;;;;4976260;28;20199;-55
2022/03/15 00:07:26;;;;;;;26.50;14.97;;;9.50;99.90;;;;;;4974987;28;20250;-55
2022/03/15 00:09:53;;;;;;;25.63;14.70;;;9.40;99.90;;;;;;4976186;28;20231;-55
2022/03/15 00:12:20;;;;;;;24.53;14.40;;;9.50;99.90;;;;;;4976683;28;20470;-55
2022/03/15 00:14:47;;;;;;;22.97;14.50;;;9.40;99.90;;;;;;4975377;28;20209;-55
2022/03/15 00:17:14;;;;;;;24.77;14.77;;;9.40;99.90;;;;;;4977445;28;20644;-55
2022/03/15 00:19:40;;;;;;;25.13;15.90;;;9.40;99.90;;;;;;4974300;28;20294;-55
2022/03/15 00:22:08;;;;;;;24.30;15.33;;;9.30;99.90;;;;;;4974842;28;20230;-54
2022/03/15 00:24:35;;;;;;;24.90;15.17;;;9.30;99.90;;;;;;4976746;28;20292;-57
2022/03/15 00:27:03;;;;;;;25.77;15.23;;;9.30;99.90;;;;;;4976978;28;20304;-55
2022/03/15 00:29:30;;;;;;;25.40;15.33;;;9.30;99.90;;;;;;4973783;28;20226;-55
2022/03/15 00:31:57;;;;;;;31.97;16.17;;;9.30;99.90;;;;;;4974742;28;20223;-56
2022/03/15 00:34:24;;;;;;;22.13;15.07;;;9.30;99.90;;;;;;4974579;28;20568;-54
2022/03/15 00:36:51;;;;;;;22.83;16.50;;;9.20;99.90;;;;;;4975670;28;20297;-55
2022/03/15 00:39:18;;;;;;;24.67;15.37;;;9.10;99.90;;;;;;4975499;28;20190;-55
2022/03/15 00:41:45;;;;;;;24.53;15.57;;;9.10;99.90;;;;;;4976148;28;20603;-55
2022/03/15 00:44:12;;;;;;;23.50;15.70;;;9.20;99.90;;;;;;4974462;28;20299;-56
2022/03/15 00:46:39;;;;;;;20.83;15.07;;;9.20;99.90;;;;;;4976242;28;20253;-55
2022/03/15 00:49:06;;;;;;;25.93;14.70;;;9.10;99.90;;;;;;4973382;28;20206;-56
2022/03/15 00:51:34;;;;;;;27.23;16.00;;;9.00;99.90;;;;;;4973324;28;20249;-55
2022/03/15 00:54:01;;;;;;;27.90;16.40;;;9.10;99.90;;;;;;4974060;28;20736;-58
2022/03/15 00:56:28;;;;;;;25.97;16.03;;;9.10;99.90;;;;;;4977038;28;20233;-55
2022/03/15 00:58:55;;;;;;;26.03;16.83;;;9.10;99.90;;;;;;4975630;28;20303;-55
2022/03/15 01:01:22;;;;;;;25.30;17.27;;;9.10;99.90;;;;;;4975325;28;20235;-55
2022/03/15 01:03:49;;;;;;;25.60;17.47;;;9.00;99.90;;;;;;4974538;28;20301;-55
2022/03/15 01:06:16;;;;;;;28.30;17.20;;;9.10;99.90;;;;;;4974627;28;20227;-55
2022/03/15 01:08:43;;;;;;;26.30;16.80;;;9.10;99.90;;;;;;4974699;28;20213;-56
2022/03/15 01:11:10;;;;;;;28.47;17.97;;;9.10;99.90;;;;;;4976286;28;20291;-55
2022/03/15 01:13:36;;;;;;;25.43;16.77;;;9.10;99.90;;;;;;4974052;28;20622;-55
2022/03/15 01:16:03;;;;;;;27.63;18.07;;;9.10;99.90;;;;;;4974277;28;20220;-55
2022/03/15 01:18:31;;;;;;;31.80;17.27;;;9.10;99.90;;;;;;4974202;28;20207;-55
2022/03/15 01:20:57;;;;;;;27.57;16.77;;;9.10;99.90;;;;;;4973147;28;20302;-55
2022/03/15 01:23:24;;;;;;;26.40;16.87;;;9.10;99.90;;;;;;4975824;28;20290;-55
2022/03/15 01:25:51;;;;;;;26.90;17.03;;;9.00;99.90;;;;;;4976082;28;20333;-55
2022/03/15 01:28:18;;;;;;;25.70;17.90;;;9.10;99.90;;;;;;4972465;28;20720;-55
2022/03/15 01:30:45;;;;;;;25.67;17.17;;;9.10;99.90;;;;;;4977978;28;20590;-57
2022/03/15 01:33:11;;;;;;;29.83;17.97;;;9.10;99.90;;;;;;4977444;28;20687;-56
2022/03/15 01:35:38;;;;;;;31.20;18.10;;;9.10;99.90;;;;;;4978153;28;20685;-56
2022/03/15 01:38:05;;;;;;;29.57;19.10;;;9.00;99.90;;;;;;4981168;28;20240;-56
2022/03/15 01:40:32;;;;;;;28.57;18.20;;;9.00;99.90;;;;;;4977761;28;20933;-56
2022/03/15 01:42:59;;;;;;;26.20;17.90;;;9.00;99.90;;;;;;4978409;28;20775;-55
2022/03/15 01:45:37;;;;;;;26.13;17.20;;;8.90;99.90;;;;;;4979164;28;20713;-55
2022/03/15 01:48:06;;;;;;;24.73;17.10;;;9.00;99.90;;;;;;4976000;28;20296;-56
2022/03/15 01:50:34;;;;;;;28.30;17.63;;;8.90;99.90;;;;;;4975230;28;20219;-55
2022/03/15 01:53:01;;;;;;;22.77;16.40;;;8.90;99.90;;;;;;4978070;28;20207;-55
2022/03/15 01:55:28;;;;;;;28.37;16.97;;;8.90;99.90;;;;;;4978160;28;20247;-54
2022/03/15 01:57:57;;;;;;;26.90;17.43;;;8.90;99.90;;;;;;4978333;28;20209;-58
2022/03/15 02:00:24;;;;;;;26.17;16.63;;;8.90;99.90;;;;;;4978315;28;20244;-56
2022/03/15 02:02:51;;;;;;;30.33;16.93;;;8.90;99.90;;;;;;4977950;28;20214;-56
2022/03/15 02:05:17;;;;;;;28.83;17.03;;;8.90;99.90;;;;;;4977277;28;20669;-55
2022/03/15 02:07:44;;;;;;;26.70;16.33;;;8.90;99.90;;;;;;4976226;28;20768;-57
2022/03/15 02:10:12;;;;;;;25.93;16.20;;;8.90;99.90;;;;;;4979567;28;20205;-55
2022/03/15 02:12:39;;;;;;;26.60;16.33;;;8.90;99.90;;;;;;4979382;28;20199;-56
2022/03/15 02:15:08;;;;;;;24.93;15.77;;;8.90;99.90;;;;;;4975097;28;20212;-55
2022/03/15 02:17:36;;;;;;;28.27;15.30;;;8.90;99.90;;;;;;4978981;28;20287;-57
2022/03/15 02:20:10;;;;;;;23.80;16.23;;;8.90;99.90;;;;;;4976740;28;20625;-56
2022/03/15 02:22:37;;;;;;;25.93;15.67;;;8.90;99.90;;;;;;4978635;28;20229;-56
2022/03/15 02:25:04;;;;;;;26.80;15.50;;;8.90;99.90;;;;;;4979751;28;20355;-57
2022/03/15 02:27:31;;;;;;;21.33;15.00;;;8.80;99.90;;;;;;4978894;28;20565;-55
2022/03/15 02:29:58;;;;;;;27.10;16.33;;;8.80;99.90;;;;;;4977396;28;20258;-56
2022/03/15 02:32:25;;;;;;;22.27;14.37;;;8.80;99.90;;;;;;4976051;28;20663;-57
2022/03/15 02:34:52;;;;;;;25.37;14.83;;;8.90;99.90;;;;;;4977665;28;20240;-57
2022/03/15 02:37:19;;;;;;;20.33;14.67;;;8.80;99.90;;;;;;4977273;28;20663;-56
2022/03/15 02:39:46;;;;;;;22.07;14.03;;;8.90;99.90;;;;;;4977072;28;20237;-56
2022/03/15 02:42:12;;;;;;;21.17;13.87;;;8.80;99.90;;;;;;4979360;28;20292;-57
2022/03/15 02:44:39;;;;;;;21.10;14.60;;;8.90;99.90;;;;;;4974602;28;20671;-56
2022/03/15 02:47:06;;;;;;;19.13;13.60;;;8.90;99.90;;;;;;4975833;28;20240;-56
2022/03/15 02:49:33;;;;;;;21.77;14.10;;;8.90;99.20;;;;;;4976009;28;20676;-55
2022/03/15 02:52:00;;;;;;;18.40;13.27;;;8.90;97.00;;;;;;4978875;28;20222;-56
2022/03/15 02:54:26;;;;;;;18.27;12.60;;;8.80;97.60;;;;;;4975318;28;20252;-55
2022/03/15 02:56:54;;;;;;;17.53;12.90;;;8.80;64.20;;;;;;4976693;28;20363;-57
2022/03/15 02:59:21;;;;;;;18.87;13.33;;;8.80;64.30;;;;;;4973217;28;20299;-57
2022/03/15 03:01:49;;;;;;;21.20;14.10;;;8.90;92.60;;;;;;4976770;28;20219;-55
2022/03/15 03:04:21;;;;;;;20.73;13.23;;;8.80;99.90;;;;;;4976535;28;20660;-56
2022/03/15 03:06:48;;;;;;;22.53;12.97;;;8.80;99.90;;;;;;4979174;28;20243;-57
2022/03/15 03:09:16;;;;;;;21.43;13.67;;;8.70;99.90;;;;;;4975902;28;20217;-56
2022/03/15 03:11:43;;;;;;;21.20;12.47;;;8.70;99.90;;;;;;4979266;28;20347;-56
2022/03/15 03:14:13;;;;;;;17.47;13.30;;;8.70;99.90;;;;;;4977905;28;20304;-55
2022/03/15 03:16:40;;;;;;;17.40;12.57;;;8.80;99.90;;;;;;4976400;28;20644;-57
2022/03/15 03:19:08;;;;;;;20.00;13.43;;;8.80;99.90;;;;;;4975769;28;20205;-57
2022/03/15 03:21:36;;;;;;;23.00;13.90;;;8.80;99.90;;;;;;4975727;28;20209;-56
2022/03/15 03:24:07;;;;;;;23.23;14.30;;;8.80;98.70;;;;;;4977813;28;20293;-56
2022/03/15 03:26:36;;;;;;;19.60;13.03;;;8.80;83.40;;;;;;4977767;28;20342;-58
2022/03/15 03:29:09;;;;;;;22.60;14.27;;;8.70;62.60;;;;;;4975037;28;20232;-55
2022/03/15 03:31:37;;;;;;;22.87;13.83;;;8.70;99.90;;;;;;4975515;28;20243;-57
2022/03/15 03:34:05;;;;;;;18.77;13.50;;;8.70;99.90;;;;;;4975251;28;21388;-56
2022/03/15 03:36:34;;;;;;;18.37;13.63;;;8.70;99.90;;;;;;4976599;28;20240;-55
2022/03/15 03:39:21;;;;;;;22.00;13.40;;;8.70;99.90;;;;;;4977478;28;20206;-55
2022/03/15 03:41:48;;;;;;;21.83;13.43;;;8.60;99.90;;;;;;4980021;28;20265;-55
2022/03/15 03:44:14;;;;;;;20.07;13.87;;;8.70;99.90;;;;;;4975174;28;20325;-55
2022/03/15 03:46:42;;;;;;;19.47;12.37;;;8.70;99.90;;;;;;4975214;28;20293;-56
2022/03/15 03:49:09;;;;;;;19.03;13.17;;;8.60;99.90;;;;;;4974166;28;20229;-55
2022/03/15 03:51:36;;;;;;;22.00;14.00;;;8.60;99.90;;;;;;4972876;28;20322;-56
2022/03/15 03:54:03;;;;;;;18.80;13.73;;;8.70;99.90;;;;;;4977647;28;20609;-55
2022/03/15 03:56:30;;;;;;;20.37;13.13;;;8.70;99.90;;;;;;4975592;28;20636;-55
2022/03/15 03:58:57;;;;;;;15.07;11.60;;;8.70;99.90;;;;;;4975973;28;20740;-55
2022/03/15 04:01:23;;;;;;;18.50;12.93;;;8.60;95.90;;;;;;4974290;28;20200;-56
2022/03/15 04:03:50;;;;;;;19.60;13.07;;;8.60;91.00;;;;;;4978414;28;20664;-56
2022/03/15 04:06:18;;;;;;;20.53;14.27;;;8.70;99.90;;;;;;4974694;28;20255;-56
2022/03/15 04:08:46;;;;;;;21.57;13.27;;;8.70;99.90;;;;;;4974479;28;20207;-57
2022/03/15 04:11:13;;;;;;;18.93;12.87;;;8.70;99.90;;;;;;4973802;28;20710;-57
2022/03/15 04:13:43;;;;;;;24.97;13.47;;;8.60;46.70;;;;;;4976309;28;20285;-56
2022/03/15 04:16:10;;;;;;;18.43;12.47;;;8.50;94.70;;;;;;4975294;28;20211;-57
2022/03/15 04:18:37;;;;;;;18.73;12.97;;;8.50;99.90;;;;;;4976507;28;20320;-56
2022/03/15 04:21:04;;;;;;;19.50;13.40;;;8.50;99.90;;;;;;4976523;28;20548;-55
2022/03/15 04:23:32;;;;;;;19.63;12.43;;;8.60;99.90;;;;;;4975434;28;20753;-58
2022/03/15 04:25:58;;;;;;;18.27;12.03;;;8.60;99.90;;;;;;4977458;28;20243;-55
2022/03/15 04:28:25;;;;;;;15.07;11.73;;;8.60;99.90;;;;;;4975555;28;20752;-55
2022/03/15 04:30:52;;;;;;;18.20;12.40;;;8.60;99.90;;;;;;4973217;28;20212;-55
2022/03/15 04:33:19;;;;;;;17.13;12.07;;;8.60;47.60;;;;;;4976788;28;20569;-55
2022/03/15 04:35:45;;;;;;;21.13;12.40;;;8.60;17.20;;;;;;4975845;28;20213;-56
2022/03/15 04:38:12;;;;;;;16.07;11.40;;;8.60;17.20;;;;;;4977140;28;20632;-57
2022/03/15 04:40:39;;;;;;;17.67;11.63;;;8.60;1.00;;;;;;4976067;28;20697;-57
2022/03/15 04:43:06;;;;;;;19.17;13.13;;;8.60;99.90;;;;;;4975336;28;20301;-55
2022/03/15 04:45:33;;;;;;;18.10;12.73;;;8.60;99.90;;;;;;4973162;28;20236;-56
2022/03/15 04:48:00;;;;;;;18.13;11.43;;;8.60;99.90;;;;;;4975768;28;20349;-56
2022/03/15 04:50:26;;;;;;;20.10;11.50;;;8.60;99.90;;;;;;4974444;28;20311;-56
2022/03/15 04:52:53;;;;;;;17.20;11.40;;;8.60;99.90;;;;;;4974997;28;20718;-56
2022/03/15 04:55:20;;;;;;;17.20;11.53;;;8.50;99.90;;;;;;4976231;28;20298;-54
2022/03/15 04:57:47;;;;;;;18.57;11.63;;;8.50;99.90;;;;;;4973946;28;20204;-55
2022/03/15 05:00:14;;;;;;;17.70;11.10;;;8.40;99.90;;;;;;4973130;28;20515;-55
2022/03/15 05:02:43;;;;;;;24.57;11.17;;;8.40;99.90;;;;;;4973672;28;20297;-57
2022/03/15 05:05:10;;;;;;;18.70;11.70;;;8.40;99.90;;;;;;4976557;28;20307;-56
2022/03/15 05:07:37;;;;;;;18.80;11.67;;;8.30;99.90;;;;;;4983810;28;20667;-56
2022/03/15 05:12:50;;;;;;;15.97;11.03;;;8.20;99.90;;;;;;4978411;28;20243;-56
2022/03/15 05:15:17;;;;;;;17.00;11.60;;;8.30;99.90;;;;;;4978816;28;20293;-55
2022/03/15 05:17:44;;;;;;;13.63;11.60;;;8.30;99.90;;;;;;4978163;28;20231;-57
2022/03/15 05:20:11;;;;;;;15.43;11.23;;;8.30;99.90;;;;;;4976315;28;20653;-56
2022/03/15 05:22:38;;;;;;;21.03;11.67;;;8.20;99.90;;;;;;4980516;28;20240;-56
2022/03/15 05:25:05;;;;;;;16.60;10.73;;;8.20;99.90;;;;;;4979997;28;20289;-56
2022/03/15 05:27:35;;;;;;;17.60;11.67;;;8.20;99.90;;;;;;4978452;28;20246;-55
2022/03/15 05:30:03;;;;;;;18.63;10.20;;;8.20;99.90;;;;;;4978278;28;20687;-56
2022/03/15 05:32:30;;;;;;;13.73;10.10;;;8.20;99.90;;;;;;4979707;28;20254;-56
2022/03/15 05:34:57;;;;;;;14.73;10.47;;;8.20;99.90;;;;;;4976792;28;20559;-55
2022/03/15 05:37:24;;;;;;;15.60;10.57;;;8.10;99.90;;;;;;4978591;28;20206;-57
2022/03/15 05:39:51;;;;;;;17.03;10.43;;;8.10;99.90;;;;;;4978054;28;20678;-56
2022/03/15 05:42:18;;;;;;;16.10;10.90;;;8.20;99.90;;;;;;4978029;28;20260;-58
2022/03/15 05:44:46;;;;;;;16.53;10.23;;;8.20;99.90;;;;;;4976677;28;20247;-56
2022/03/15 05:47:13;;;;;;;14.07;10.10;;;8.20;99.90;;;;;;4977137;28;20239;-57
2022/03/15 05:49:40;;;;;;;16.70;9.90;;;8.10;99.90;;;;;;4977513;28;20268;-57
2022/03/15 05:52:08;;;;;;;16.73;9.90;;;8.20;99.90;;;;;;4980142;28;20750;-56
2022/03/15 05:54:35;;;;;;;13.00;9.83;;;8.00;99.90;;;;;;4980000;28;20254;-58
2022/03/15 05:57:02;;;;;;;17.47;10.40;;;8.00;99.90;;;;;;4980348;28;21401;-57
2022/03/15 05:59:29;;;;;;;13.93;10.13;;;8.10;99.90;;;;;;4976016;28;20202;-56
2022/03/15 06:01:57;;;;;;;13.00;10.07;;;8.00;99.90;;;;;;5006324;28;20212;-55
2022/03/15 06:04:26;;;;;;;15.30;10.70;;;7.90;99.90;;;;;;4978335;28;20214;-56
2022/03/15 06:06:57;;;;;;;12.50;9.43;;;7.90;99.90;;;;;;4980496;28;20229;-56
2022/03/15 06:09:24;;;;;;;14.73;10.40;;;8.00;99.90;;;;;;4976425;28;20208;-56
2022/03/15 06:11:52;;;;;;;15.83;10.53;;;8.10;99.90;;;;;;4979777;28;20621;-56
2022/03/15 06:14:20;;;;;;;15.50;9.93;;;8.10;99.90;;;;;;4978345;28;20237;-56
2022/03/15 06:16:47;;;;;;;14.00;9.30;;;8.00;99.90;;;;;;4978356;28;20211;-57
2022/03/15 06:19:14;;;;;;;17.70;10.20;;;7.90;99.90;;;;;;4977502;28;20229;-57
2022/03/15 06:21:41;;;;;;;15.43;9.50;;;7.90;99.90;;;;;;4977907;28;20308;-57
2022/03/15 06:24:09;;;;;;;14.47;10.23;;;7.80;99.90;;;;;;4977790;28;20209;-57
2022/03/15 06:26:37;;;;;;;12.53;9.40;;;7.80;99.90;;;;;;4978849;28;20629;-56
2022/03/15 06:29:05;;;;;;;12.07;9.20;;;7.80;99.90;;;;;;4975865;28;20208;-54
2022/03/15 06:31:33;;;;;;;18.87;10.07;;;7.80;99.90;;;;;;4975420;28;22139;-56
2022/03/15 06:34:01;;;;;;;14.37;9.37;;;7.70;99.90;;;;;;4977829;28;20277;-56
2022/03/15 06:36:29;;;;;;;14.17;9.70;;;7.60;99.90;;;;;;4980729;28;20195;-56
2022/03/15 06:38:56;;;;;;;15.80;10.40;;;7.60;99.90;;;;;;4980446;28;20207;-57
2022/03/15 06:41:23;;;;;;;13.07;9.63;;;7.60;99.90;;;;;;4975640;28;20357;-55
2022/03/15 06:43:50;;;;;;;16.00;9.57;;;7.50;99.90;;;;;;4978916;28;20344;-58
2022/03/15 06:46:17;;;;;;;17.80;9.73;;;7.50;99.90;;;;;;5010189;28;20305;-57
2022/03/15 06:48:44;;;;;;;14.53;9.33;;;7.50;99.90;;;;;;4977950;28;20810;-56
2022/03/15 06:51:11;;;;;;;15.70;9.23;;;7.60;99.90;;;;;;4976074;28;20246;-57
2022/03/15 06:53:38;;;;;;;12.40;9.40;;;7.60;99.90;;;;;;4978333;28;20244;-56
2022/03/15 06:56:04;;;;;;;19.23;9.23;;;7.60;99.90;;;;;;4979462;28;20293;-60
2022/03/15 06:58:31;;;;;;;13.53;8.77;;;7.60;99.90;;;;;;4976882;28;20254;-55
2022/03/15 07:00:58;;;;;;;11.47;8.87;;;7.60;99.90;;;;;;4975453;28;20282;-57
2022/03/15 07:03:25;;;;;;;13.90;9.27;;;7.70;99.90;;;;;;4981448;28;20208;-58
2022/03/15 07:05:52;;;;;;;15.37;9.17;;;7.80;99.90;;;;;;4978318;28;20243;-55
2022/03/15 07:08:19;;;;;;;15.53;9.07;;;7.80;99.90;;;;;;4978465;28;20206;-56
2022/03/15 07:10:46;;;;;;;14.87;8.43;;;7.70;99.90;;;;;;4977318;28;20209;-58
2022/03/15 07:13:12;;;;;;;12.37;9.83;;;7.70;99.90;;;;;;4978932;28;20307;-55
2022/03/15 07:15:39;;;;;;;13.30;7.93;;;7.80;99.90;;;;;;4979848;28;20307;-56
2022/03/15 07:18:06;;;;;;;16.27;8.37;;;8.00;99.90;;;;;;4976193;28;20211;-56
2022/03/15 07:20:34;;;;;;;15.90;8.10;;;8.10;99.90;;;;;;4977932;28;20216;-56
2022/03/15 07:23:01;;;;;;;15.50;8.83;;;8.00;99.90;;;;;;4976373;28;20263;-56
2022/03/15 07:25:28;;;;;;;15.70;8.97;;;8.10;99.90;;;;;;4978510;28;20285;-57
2022/03/15 07:27:56;;;;;;;14.77;8.17;;;8.20;99.90;;;;;;4973844;28;20228;-61
2022/03/15 07:30:23;;;;;;;12.27;7.97;;;8.10;1.00;;;;;;4975211;28;20493;-55
2022/03/15 07:32:50;;;;;;;9.73;8.10;;;8.10;1.00;;;;;;4976653;28;20215;-57
2022/03/15 07:35:17;;;;;;;14.80;8.80;;;8.10;1.00;;;;;;4974916;28;20340;-56
2022/03/15 07:37:52;;;;;;;12.90;8.03;;;8.20;1.00;;;;;;4974670;28;20217;-59
2022/03/15 07:40:19;;;;;;;11.50;8.30;;;8.10;1.00;;;;;;4967679;28;20651;-56
2022/03/15 07:42:46;;;;;;;10.90;8.20;;;8.10;99.90;;;;;;4974574;28;20237;-55
2022/03/15 07:45:13;;;;;;;12.27;8.23;;;8.20;99.90;;;;;;4971969;28;20382;-55
2022/03/15 07:47:40;;;;;;;13.37;9.10;;;8.10;99.90;;;;;;4974523;28;20327;-55
2022/03/15 07:50:07;;;;;;;12.87;8.50;;;8.10;99.90;;;;;;4971773;28;20301;-56
2022/03/15 07:52:34;;;;;;;12.03;7.83;;;8.10;99.90;;;;;;4974199;28;20240;-58
2022/03/15 07:55:01;;;;;;;16.20;8.80;;;8.10;99.90;;;;;;4972247;28;20275;-56
2022/03/15 07:57:28;;;;;;;14.87;8.60;;;8.10;99.90;;;;;;4972516;28;20254;-56
2022/03/15 07:59:55;;;;;;;11.83;8.20;;;8.00;99.90;;;;;;4972622;28;20278;-56
2022/03/15 08:02:21;;;;;;;11.20;7.93;;;8.00;99.90;;;;;;4970434;28;20309;-56
2022/03/15 08:04:49;;;;;;;11.03;7.50;;;8.00;99.90;;;;;;4974047;28;21352;-55
2022/03/15 08:07:15;;;;;;;12.53;8.10;;;8.10;99.90;;;;;;4973736;28;20288;-57
2022/03/15 08:09:42;;;;;;;10.47;7.10;;;8.30;99.90;;;;;;4972920;28;20670;-55
2022/03/15 08:12:09;;;;;;;8.97;7.23;;;8.30;99.90;;;;;;4973513;28;20222;-58
2022/03/15 08:14:36;;;;;;;11.27;6.93;;;8.30;1.00;;;;;;4970666;28;20307;-56
2022/03/15 08:17:03;;;;;;;13.17;7.13;;;8.20;1.00;;;;;;4972120;28;20221;-56
2022/03/15 08:19:30;;;;;;;9.67;6.63;;;8.20;1.00;;;;;;4972173;28;20224;-56
2022/03/15 08:22:01;;;;;;;10.67;6.17;;;8.30;1.00;;;;;;4962468;28;20758;-55
2022/03/15 08:24:29;;;;;;;8.73;6.10;;;8.40;99.90;;;;;;4970643;28;20467;-55
2022/03/15 08:26:55;;;;;;;11.43;6.50;;;8.60;99.90;;;;;;4969395;28;20209;-57
2022/03/15 08:29:23;;;;;;;11.73;6.10;;;8.60;99.90;;;;;;4975608;28;20734;-56
2022/03/15 08:31:51;;;;;;;11.53;6.73;;;8.60;1.00;;;;;;4971844;28;20567;-55
2022/03/15 08:34:17;;;;;;;9.60;6.47;;;8.60;99.90;;;;;;4974888;28;21621;-56
2022/03/15 08:36:44;;;;;;;10.53;5.93;;;8.70;99.90;;;;;;4971261;28;20230;-56
2022/03/15 08:39:11;;;;;;;10.07;6.30;;;8.80;99.90;;;;;;4970777;28;20725;-55
2022/03/15 08:41:39;;;;;;;8.83;6.60;;;8.80;99.90;;;;;;4972565;28;20198;-57
2022/03/15 08:44:06;;;;;;;8.83;6.30;;;8.80;99.90;;;;;;4969171;28;20296;-56
2022/03/15 08:46:33;;;;;;;9.90;6.07;;;8.90;99.90;;;;;;4965758;28;20305;-55
2022/03/15 08:49:03;;;;;;;15.33;6.47;;;9.00;99.90;;;;;;4968845;28;20625;-58
2022/03/15 08:51:30;;;;;;;10.37;6.27;;;8.80;99.90;;;;;;4966368;28;20343;-56
2022/03/15 08:53:57;;;;;;;12.03;5.93;;;8.80;99.90;;;;;;4972077;28;20606;-55
2022/03/15 08:56:24;;;;;;;10.47;5.97;;;8.90;99.90;;;;;;4966970;28;20330;-56
2022/03/15 08:58:51;;;;;;;13.43;7.10;;;9.00;99.90;;;;;;4969762;28;20283;-56
2022/03/15 09:01:17;;;;;;;18.90;7.90;;;9.00;99.90;;;;;;4969957;28;20296;-55
2022/03/15 09:03:59;;;;;;;19.90;9.23;;;9.00;99.90;;;;;;4969351;28;20290;-56
2022/03/15 09:06:26;;;;;;;21.27;8.93;;;8.90;99.90;;;;;;4973231;28;20316;-56
2022/03/15 09:08:53;;;;;;;19.67;9.57;;;9.00;99.90;;;;;;4982791;28;20221;-55
2022/03/15 09:11:20;;;;;;;21.40;10.40;;;9.00;1.00;;;;;;4971972;28;20265;-55
2022/03/15 09:13:46;;;;;;;16.20;8.80;;;9.10;99.90;;;;;;4973943;28;20226;-56
2022/03/15 09:16:14;;;;;;;23.27;8.50;;;9.00;99.90;;;;;;4972974;28;20294;-57
2022/03/15 09:18:41;;;;;;;13.40;7.07;;;9.00;99.90;;;;;;4972744;28;20611;-56
2022/03/15 09:21:09;;;;;;;15.93;7.10;;;9.00;99.90;;;;;;4964239;28;20225;-56
2022/03/15 09:23:36;;;;;;;14.40;7.43;;;9.00;99.90;;;;;;4968802;28;20264;-56
2022/03/15 09:26:02;;;;;;;12.17;8.40;;;9.20;99.90;;;;;;4970138;28;20227;-56
2022/03/15 09:28:30;;;;;;;12.03;6.33;;;9.20;99.90;;;;;;4965992;28;20216;-56
2022/03/15 09:30:58;;;;;;;9.90;6.70;;;9.20;99.90;;;;;;4967363;28;20735;-55
2022/03/15 09:33:25;;;;;;;10.30;7.20;;;9.10;99.90;;;;;;4968892;28;20218;-55
2022/03/15 09:35:52;;;;;;;13.30;5.97;;;9.30;99.90;;;;;;4971862;28;20302;-56
2022/03/15 09:38:20;;;;;;;11.43;6.60;;;9.40;99.90;;;;;;4974172;28;20823;-56
2022/03/15 09:40:52;;;;;;;11.30;6.77;;;9.40;99.90;;;;;;4965738;28;20206;-55
2022/03/15 09:43:24;;;;;;;12.03;6.83;;;9.40;99.90;;;;;;4972383;28;20295;-55
2022/03/15 09:45:51;;;;;;;15.10;6.50;;;9.30;99.90;;;;;;4968826;28;20211;-55
2022/03/15 09:48:40;;;;;;;13.17;6.87;;;9.50;99.90;;;;;;4961976;28;20278;-55
2022/03/15 09:51:12;;;;;;;18.33;7.90;;;9.70;99.90;;;;;;4971672;28;20344;-55
2022/03/15 09:53:42;;;;;;;11.70;7.40;;;9.80;99.90;;;;;;4971350;28;20961;-54
2022/03/15 09:56:09;;;;;;;11.80;7.33;;;9.90;99.90;;;;;;4970759;28;20205;-55
2022/03/15 09:58:36;;;;;;;11.60;7.77;;;9.90;99.90;;;;;;4973372;28;20221;-55
2022/03/15 10:01:03;;;;;;;14.50;7.83;;;9.90;99.90;;;;;;4976873;28;21249;-56
2022/03/15 10:03:31;;;;;;;14.53;7.77;;;10.00;99.90;;;;;;4970367;28;20564;-55
2022/03/15 10:05:57;;;;;;;12.40;7.90;;;10.00;99.90;;;;;;4966728;28;20324;-55
2022/03/15 10:08:24;;;;;;;13.10;7.90;;;9.90;99.90;;;;;;4975312;28;20213;-55
2022/03/15 10:10:53;;;;;;;11.97;8.23;;;9.80;99.90;;;;;;4974935;28;20220;-55
2022/03/15 10:13:21;;;;;;;14.80;7.63;;;10.10;99.90;;;;;;4972258;28;20231;-54
2022/03/15 10:16:01;;;;;;;11.70;7.83;;;10.10;99.90;;;;;;4978183;28;20578;-55
2022/03/15 10:18:28;;;;;;;15.70;7.47;;;10.20;99.90;;;;;;4976286;28;20201;-59
2022/03/15 10:20:55;;;;;;;12.43;7.70;;;10.20;99.90;;;;;;4976793;28;20281;-57
2022/03/15 10:23:29;;;;;;;14.50;7.77;;;10.30;99.90;;;;;;4977894;28;20608;-56
2022/03/15 10:25:59;;;;;;;11.10;7.33;;;10.30;99.90;;;;;;4978175;28;20206;-56
2022/03/15 10:28:26;;;;;;;12.20;7.93;;;10.30;99.90;;;;;;4979724;28;20617;-56
2022/03/15 10:30:53;;;;;;;14.43;7.83;;;10.30;99.90;;;;;;4977545;28;20906;-56
2022/03/15 10:33:20;;;;;;;14.60;7.63;;;10.30;99.90;;;;;;4978176;28;20213;-56
2022/03/15 10:35:49;;;;;;;14.50;8.40;;;10.40;99.90;;;;;;4977509;28;20215;-56
2022/03/15 10:38:17;;;;;;;13.93;8.37;;;10.30;99.90;;;;;;4978945;28;20538;-55
2022/03/15 10:40:47;;;;;;;16.07;9.20;;;10.50;99.90;;;;;;4976087;28;20597;-56
2022/03/15 10:43:19;;;;;;;15.63;8.13;;;10.50;99.90;;;;;;4974734;28;20646;-55
2022/03/15 10:45:56;;;;;;;11.27;7.60;;;10.60;99.90;;;;;;4973487;28;20639;-54
2022/03/15 10:48:32;;;;;;;12.47;7.70;;;10.60;99.90;;;;;;4972793;28;20259;-55
2022/03/15 10:51:06;;;;;;;13.63;7.50;;;10.60;99.90;;;;;;4966603;28;20206;-55
2022/03/15 10:53:47;;;;;;;13.87;8.20;;;10.80;99.90;;;;;;4965780;28;20678;-54
2022/03/15 10:56:18;;;;;;;12.13;6.60;;;11.00;99.90;;;;;;4971062;28;20655;-54
2022/03/15 10:58:50;;;;;;;11.30;7.20;;;11.00;99.90;;;;;;4970572;28;20230;-56
2022/03/15 11:01:22;;;;;;;12.67;6.73;;;11.00;1.00;;;;;;4966740;28;20377;-55
2022/03/15 11:03:53;;;;;;;11.20;7.20;;;10.90;99.90;;;;;;4972702;28;20576;-55
2022/03/15 11:06:30;;;;;;;12.53;7.27;;;10.80;99.90;;;;;;4967877;28;20237;-55
2022/03/15 11:09:01;;;;;;;12.73;6.97;;;10.90;99.90;;;;;;4972237;28;20550;-55
2022/03/15 11:11:28;;;;;;;10.97;6.87;;;11.00;99.90;;;;;;4969383;28;20199;-55
2022/03/15 11:14:04;;;;;;;11.27;6.57;;;11.00;99.90;;;;;;4969134;28;20575;-54
2022/03/15 11:16:36;;;;;;;9.20;6.67;;;10.80;99.90;;;;;;4967831;28;20294;-57
2022/03/15 11:19:05;;;;;;;9.00;6.73;;;10.90;99.90;;;;;;4972235;28;20202;-54
2022/03/15 11:21:33;;;;;;;11.90;6.77;;;10.80;99.90;;;;;;4968965;28;20637;-55
2022/03/15 11:24:03;;;;;;;11.53;7.53;;;10.90;99.90;;;;;;5001925;28;20207;-55
2022/03/15 11:26:33;;;;;;;12.33;8.07;;;10.80;99.90;;;;;;4972148;28;20576;-54
2022/03/15 11:29:03;;;;;;;9.70;6.40;;;11.00;99.90;;;;;;4971257;28;20207;-54
2022/03/15 11:31:32;;;;;;;9.63;5.90;;;11.10;99.90;;;;;;4970066;28;20665;-55
2022/03/15 11:34:01;;;;;;;14.83;5.43;;;11.00;99.90;;;;;;4969670;28;21355;-55
2022/03/15 11:36:28;;;;;;;11.83;6.37;;;10.90;99.90;;;;;;4968996;28;20629;-55
2022/03/15 11:38:57;;;;;;;11.63;6.70;;;10.90;99.90;;;;;;4974061;28;20321;-55
2022/03/15 11:41:28;;;;;;;9.87;6.43;;;10.80;99.90;;;;;;4971666;28;22477;-54
2022/03/15 11:44:25;;;;;;;13.50;6.33;;;10.80;99.90;;;;;;4968789;28;20208;-55
2022/03/15 11:47:18;;;;;;;11.63;6.23;;;10.90;99.90;;;;;;4975855;28;20265;-56
2022/03/15 11:50:02;;;;;;;12.93;6.93;;;10.90;99.90;;;;;;4970083;28;20274;-55
2022/03/15 11:52:40;;;;;;;10.90;6.70;;;10.90;99.90;;;;;;4973041;28;20301;-54
2022/03/15 11:55:28;;;;;;;10.50;6.63;;;10.80;99.90;;;;;;4975336;28;20581;-55
2022/03/15 11:58:01;;;;;;;9.40;6.93;;;10.80;99.90;;;;;;4975435;28;20276;-57
2022/03/15 12:00:44;;;;;;;10.03;7.40;;;10.80;99.90;;;;;;4971263;28;20206;-56
2022/03/15 12:03:15;;;;;;;11.67;6.73;;;10.70;99.90;;;;;;4973684;28;20210;-55
2022/03/15 12:05:54;;;;;;;7.50;6.10;;;10.80;99.90;;;;;;4973076;28;20198;-55
2022/03/15 12:08:26;;;;;;;9.53;5.90;;;10.70;99.90;;;;;;4975769;28;20691;-55
2022/03/15 12:11:01;;;;;;;11.83;6.27;;;10.60;99.90;;;;;;4972724;28;20697;-55
2022/03/15 12:13:50;;;;;;;9.57;6.07;;;10.70;99.90;;;;;;4968803;28;20360;-55
2022/03/15 12:16:24;;;;;;;7.90;5.77;;;10.70;99.90;;;;;;4971233;28;20325;-55
2022/03/15 12:19:13;;;;;;;14.53;6.00;;;10.70;99.90;;;;;;4973582;28;20377;-54
2022/03/15 12:21:53;;;;;;;10.20;6.17;;;10.80;99.90;;;;;;4969280;28;20202;-55
2022/03/15 12:24:41;;;;;;;11.40;5.90;;;11.00;99.90;;;;;;4975395;28;20281;-54
2022/03/15 12:27:22;;;;;;;10.77;6.30;;;11.00;99.90;;;;;;4971334;28;20301;-55
2022/03/15 12:29:53;;;;;;;9.23;5.47;;;11.00;99.90;;;;;;4975226;28;20542;-55
2022/03/15 12:32:22;;;;;;;9.50;5.93;;;11.00;99.90;;;;;;4972123;28;20325;-55
2022/03/15 12:34:55;;;;;;;10.13;6.80;;;10.90;99.90;;;;;;4973484;28;20256;-55
2022/03/15 12:37:34;;;;;;;9.13;6.33;;;11.00;99.90;;;;;;4971572;28;20201;-55
2022/03/15 12:40:04;;;;;;;9.77;5.87;;;11.30;99.90;;;;;;4974140;28;20239;-54
2022/03/15 12:42:32;;;;;;;14.30;6.07;;;11.50;99.90;;;;;;4976295;28;20224;-55
2022/03/15 12:45:14;;;;;;;9.70;5.60;;;11.50;99.90;;;;;;4973356;28;20304;-55
2022/03/15 12:47:44;;;;;;;8.10;5.77;;;11.40;99.90;;;;;;4969522;28;20222;-55
2022/03/15 12:50:14;;;;;;;8.60;6.27;;;11.50;99.90;;;;;;4971174;28;20214;-54